Terminal Aerodrome Forecast
Issued by NWS

Current Version | Previous Version | Graphics & Text | Print | Product List | Glossary On
Versions: 1 2 3 4 5 6 7 8 9 10 11 12 13 14
000
FTUS41 KILN 100209 AAA
TAFLCK
TAF AMD
KLCK 100209Z 1002/1024 27009KT P6SM BKN015 OVC035
     FM100500 28010KT P6SM OVC020
     FM101300 25010KT P6SM SCT025 OVC100
     FM102200 24012KT P6SM BKN050=

USA.gov is the U.S. government's official web portal to all federal, state and local government web resources and services.